Time;durP1;ratioP1;P1;durP2;ratioP2;P2;SDS_P1;SDS_P2;PMS_P1;PMS_P2;Temp;Humidity;BMP_temperature;BMP_pressure;BME280_temperature;BME280_humidity;BME280_pressure;Samples;Min_cycle;Max_cycle;Signal;HPM_P1;HPM_P2
2021/08/02 00:03:35;;;;;;;4.55;3.10;;;;;;;18.12;100.00;99363.80;714519;1182;113678;-76
2021/08/02 00:18:37;;;;;;;5.88;3.75;;;;;;;17.96;100.00;99383.63;714510;1200;114376;-77
2021/08/02 00:49:50;;;;;;;6.00;3.93;;;;;;;17.59;100.00;99361.14;708969;1194;115304;-77
2021/08/02 01:04:54;;;;;;;6.57;4.17;;;;;;;17.28;100.00;99349.30;708750;1194;114044;-76
2021/08/02 01:19:58;;;;;;;26.98;6.45;;;;;;;16.99;100.00;99331.94;711684;1200;114330;-76
2021/08/02 01:35:00;;;;;;;6.20;4.63;;;;;;;16.84;100.00;99355.88;714056;1200;114466;-77
2021/08/02 01:50:23;;;;;;;9.95;5.68;;;;;;;16.90;100.00;99355.13;713918;1176;113779;-77
2021/08/02 02:05:33;;;;;;;11.13;5.33;;;;;;;16.93;100.00;99329.06;714078;1177;113810;-77
2021/08/02 02:20:37;;;;;;;9.33;5.05;;;;;;;16.92;100.00;99342.52;714151;1186;114029;-77
2021/08/02 02:35:41;;;;;;;9.05;5.48;;;;;;;16.87;100.00;99345.72;714005;1200;114933;-78
2021/08/02 02:50:46;;;;;;;7.67;5.23;;;;;;;16.79;100.00;99357.30;714326;1199;115390;-78
2021/08/02 03:05:50;;;;;;;8.13;5.57;;;;;;;16.62;100.00;99367.41;714670;1200;113790;-76
2021/08/02 03:20:52;;;;;;;10.43;6.70;;;;;;;16.67;100.00;99372.13;715785;1177;114695;-82
2021/08/02 03:35:58;;;;;;;11.10;6.70;;;;;;;16.53;100.00;99379.19;714377;1199;115286;-73
2021/08/02 03:51:00;;;;;;;7.23;5.37;;;;;;;16.67;100.00;99380.08;714612;1178;115501;-73
2021/08/02 04:06:04;;;;;;;12.10;6.55;;;;;;;16.77;100.00;99371.75;714192;1200;114349;-74
2021/08/02 04:21:07;;;;;;;11.60;6.90;;;;;;;17.00;100.00;99383.88;714388;1199;115036;-74
2021/08/02 04:36:09;;;;;;;10.88;6.63;;;;;;;17.03;100.00;99397.55;714376;1199;114440;-73
2021/08/02 04:51:11;;;;;;;11.07;6.70;;;;;;;17.02;100.00;99411.80;714785;1199;114246;-76
2021/08/02 05:06:14;;;;;;;15.60;8.67;;;;;;;17.01;100.00;99417.31;716793;1165;115698;-78
2021/08/02 05:21:16;;;;;;;15.57;9.63;;;;;;;17.39;100.00;99417.61;714572;1200;115532;-75
2021/08/02 05:36:19;;;;;;;12.70;9.73;;;;;;;17.54;100.00;99432.52;713834;1200;114517;-74
2021/08/02 05:51:21;;;;;;;13.83;10.43;;;;;;;17.70;100.00;99423.39;714884;1199;115622;-73
2021/08/02 06:06:23;;;;;;;12.57;9.53;;;;;;;17.86;100.00;99440.75;715162;1200;115102;-79
2021/08/02 06:21:25;;;;;;;14.27;10.13;;;;;;;18.08;100.00;99436.05;715621;1200;114858;-80
2021/08/02 06:36:27;;;;;;;23.53;14.13;;;;;;;18.40;100.00;99445.02;716373;1200;114154;-80
2021/08/02 06:51:30;;;;;;;16.53;8.70;;;;;;;19.01;100.00;99452.86;716244;1203;114612;-82
2021/08/02 07:06:32;;;;;;;36.55;18.78;;;;;;;19.50;100.00;99466.52;725683;1202;114082;-80
2021/08/02 07:21:34;;;;;;;6.93;4.87;;;;;;;20.07;100.00;99469.21;715595;1200;114158;-81
2021/08/02 07:36:37;;;;;;;7.53;4.40;;;;;;;20.38;100.00;99486.97;715679;1203;113871;-80
2021/08/02 07:51:40;;;;;;;5.60;2.70;;;;;;;21.07;100.00;99505.54;716607;1177;113905;-81
2021/08/02 08:06:46;;;;;;;3.83;3.10;;;;;;;21.73;99.42;99524.42;716437;1202;114268;-80
2021/08/02 08:21:48;;;;;;;4.20;2.87;;;;;;;21.60;95.78;99529.95;715646;1177;113682;-80
2021/08/02 08:36:52;;;;;;;4.18;2.53;;;;;;;21.30;94.84;99545.90;715577;1200;115310;-81
2021/08/02 08:51:55;;;;;;;3.55;2.40;;;;;;;22.31;92.83;99546.15;715244;1200;113612;-79
2021/08/02 09:06:59;;;;;;;3.33;2.00;;;;;;;22.55;87.30;99548.88;714989;1177;113786;-80
2021/08/02 09:22:02;;;;;;;5.30;2.73;;;;;;;22.93;82.51;99556.40;715691;1197;113678;-74
2021/08/02 09:37:04;;;;;;;3.63;2.30;;;;;;;22.85;77.14;99569.33;714729;1205;113629;-76
2021/08/02 09:52:07;;;;;;;3.65;1.95;;;;;;;23.62;72.50;99568.23;713989;1205;115212;-76
2021/08/02 10:07:13;;;;;;;2.80;1.80;;;;;;;24.44;72.10;99566.18;714631;1200;114596;-77
2021/08/02 10:22:16;;;;;;;4.08;2.00;;;;;;;23.24;69.97;99573.14;713807;1178;113793;-77
2021/08/02 10:37:37;;;;;;;3.93;2.00;;;;;;;24.16;68.90;99581.28;713878;1200;113602;-76
2021/08/02 10:52:47;;;;;;;3.78;1.98;;;;;;;24.43;64.01;99592.19;714083;1181;115308;-76
2021/08/02 11:07:50;;;;;;;4.00;1.80;;;;;;;24.45;62.09;99596.50;714250;1177;113574;-75
2021/08/02 11:22:58;;;;;;;3.70;1.73;;;;;;;24.38;61.05;99610.86;714153;1202;113680;-76
2021/08/02 11:38:05;;;;;;;4.30;1.90;;;;;;;23.70;62.65;99610.72;714112;1205;113773;-76
2021/08/02 11:53:09;;;;;;;2.67;1.60;;;;;;;24.44;61.44;99619.78;714068;1200;113575;-74
2021/08/02 12:08:14;;;;;;;1.80;1.18;;;;;;;23.28;59.38;99635.02;713999;1200;115052;-75
2021/08/02 12:23:27;;;;;;;4.75;1.75;;;;;;;22.48;62.18;99647.05;714065;1202;113709;-73
2021/08/02 12:38:29;;;;;;;5.47;2.73;;;;;;;23.96;61.02;99629.95;714068;1200;115048;-75
2021/08/02 12:53:31;;;;;;;5.95;4.08;;;;;;;24.38;58.68;99639.54;715608;1200;114431;-90
2021/08/02 13:08:34;;;;;;;13.70;8.20;;;;;;;25.19;57.85;99635.69;714747;1205;114077;-79
2021/08/02 13:26:55;;;;;;;6.33;2.67;;;;;;;24.74;56.88;99640.97;713903;1194;113807;-79
2021/08/02 13:38:58;;;;;;;3.03;2.03;;;;;;;25.52;55.70;99637.47;713892;1200;113720;-79
2021/08/02 13:54:01;;;;;;;1.70;1.27;;;;;;;24.79;54.09;99652.83;714324;1176;113608;-76
2021/08/02 14:09:04;;;;;;;8.45;1.63;;;;;;;25.37;54.14;99651.52;714274;1200;114275;-75
2021/08/02 14:24:09;;;;;;;4.88;3.03;;;;;;;25.84;52.19;99635.95;718610;1204;113553;-77
2021/08/02 14:39:13;;;;;;;3.27;1.50;;;;;;;30.47;47.99;99645.94;714027;1201;113837;-76
2021/08/02 14:54:18;;;;;;;6.83;1.88;;;;;;;26.39;47.52;99644.85;713913;1200;114045;-76
2021/08/02 15:09:21;;;;;;;5.13;1.20;;;;;;;24.68;48.58;99641.94;713891;1200;114506;-76
2021/08/02 15:24:28;;;;;;;3.53;1.90;;;;;;;24.06;49.34;99650.77;713829;1200;113470;-75
2021/08/02 15:39:31;;;;;;;4.40;1.50;;;;;;;23.99;50.44;99650.89;714015;1200;113671;-75
2021/08/02 15:54:41;;;;;;;5.35;1.93;;;;;;;23.79;50.89;99667.36;713987;1199;114076;-79
2021/08/02 16:09:58;;;;;;;6.87;2.93;;;;;;;22.96;52.03;99680.80;715289;1178;113631;-80
2021/08/02 16:25:00;;;;;;;18.07;8.77;;;;;;;23.34;52.16;99690.25;715641;1200;113624;-80
2021/08/02 16:40:05;;;;;;;9.58;3.90;;;;;;;23.53;52.04;99695.47;715288;1177;114361;-76
2021/08/02 16:55:08;;;;;;;7.88;3.33;;;;;;;22.80;52.95;99708.23;715147;1200;113797;-75
2021/08/02 17:10:10;;;;;;;94.60;84.10;;;;;;;22.23;54.36;99714.77;714617;1177;113358;-76
2021/08/02 17:25:15;;;;;;;47.08;17.85;;;;;;;21.93;54.79;99732.41;713931;1177;113994;-78
2021/08/02 17:40:18;;;;;;;34.27;12.37;;;;;;;21.55;55.05;99737.94;714145;1202;114457;-79
2021/08/02 17:55:20;;;;;;;24.80;10.53;;;;;;;21.43;55.04;99759.16;714241;1177;114060;-77
2021/08/02 18:10:22;;;;;;;13.48;5.30;;;;;;;21.03;55.61;99780.83;713872;1205;114875;-75
2021/08/02 18:25:25;;;;;;;11.88;4.53;;;;;;;20.68;55.54;99795.38;713932;1177;114670;-76
2021/08/02 18:40:27;;;;;;;10.90;4.90;;;;;;;20.49;56.03;99806.95;714282;1200;113785;-76
2021/08/02 18:55:30;;;;;;;7.80;4.40;;;;;;;20.31;56.92;99810.30;714879;1178;115453;-76
2021/08/02 19:10:32;;;;;;;9.05;5.90;;;;;;;20.07;57.77;99813.46;714506;1200;113987;-76
2021/08/02 19:25:37;;;;;;;8.63;3.10;;;;;;;20.03;58.71;99830.84;714778;1200;117655;-76
2021/08/02 19:40:47;;;;;;;6.98;2.75;;;;;;;19.84;59.79;99839.72;715121;1177;114879;-75
2021/08/02 19:56:00;;;;;;;7.28;3.70;;;;;;;19.72;60.20;99856.27;713988;1177;113974;-76
2021/08/02 20:11:02;;;;;;;6.30;2.93;;;;;;;19.49;61.39;99856.66;714957;1200;113520;-75
2021/08/02 20:26:10;;;;;;;8.60;3.63;;;;;;;19.16;62.31;99875.25;715423;1200;113718;-75
2021/08/02 20:41:14;;;;;;;4.63;2.40;;;;;;;19.08;62.89;99878.91;714879;1176;114751;-76
2021/08/02 20:56:18;;;;;;;5.10;2.08;;;;;;;18.83;64.23;99895.36;714762;1203;113725;-76
2021/08/02 21:11:24;;;;;;;3.77;1.90;;;;;;;18.74;65.11;99889.42;715001;1200;115076;-76
2021/08/02 21:26:27;;;;;;;6.85;2.28;;;;;;;18.65;65.91;99887.11;713818;1200;114935;-77
2021/08/02 21:41:29;;;;;;;6.28;2.23;;;;;;;18.84;67.02;99896.20;713791;1205;114664;-75
2021/08/02 21:56:33;;;;;;;5.75;2.10;;;;;;;18.68;67.47;99897.36;713875;1205;114524;-76
2021/08/02 22:11:35;;;;;;;6.20;2.20;;;;;;;18.56;67.82;99907.73;713826;1177;113513;-75
2021/08/02 22:26:37;;;;;;;3.35;1.55;;;;;;;18.35;68.46;99912.09;713975;1200;113142;-76
2021/08/02 22:41:41;;;;;;;5.20;2.00;;;;;;;18.25;69.58;99916.94;713666;1179;114683;-77
2021/08/02 22:56:47;;;;;;;4.03;1.57;;;;;;;17.97;70.35;99928.38;713568;1177;113923;-75
2021/08/02 23:11:49;;;;;;;5.90;2.20;;;;;;;17.60;71.32;99941.70;713748;1200;114042;-77
2021/08/02 23:26:51;;;;;;;5.10;2.08;;;;;;;17.25;73.11;99943.41;713696;1178;113500;-76
2021/08/02 23:41:54;;;;;;;7.93;2.98;;;;;;;16.86;75.06;99942.70;713815;1204;113888;-76
2021/08/02 23:56:56;;;;;;;4.75;2.78;;;;;;;16.57;77.02;99962.09;713677;1200;113674;-78
